Latest Weather Observations for Mount Read

IDT60801

Issued at 8:32 am EST Friday 28 April 2017 (issued every 30 minutes, with the page automatically refreshed every 10 minutes)

About weather observations | Map of weather stations | Latest weather observations for TAS | Other Formats
Station Details ID: 097085 Name: MOUNT READ Lat: -41.84 Lon: 145.54 Height: 1119.5 m
Data from the previous 72 hours. | See also: Recent months at Mount Read
Date/Time
EST
Temp
°C
App
Temp
°C
Dew
Point
°C
Rel
Hum
%
Delta-T
°C
Wind Press
QNH
hPa
Press
MSL
hPa
Rain since
9am
mm
Dir  Spd
km/h
Gust
km/h
Spd
kts
Gust
kts
28/08:30am 5.3 -1.5 5.3 100 0.0 W 30 35 16 19 1017.6 1017.8 17.8
28/08:00am 5.6 -0.7 5.6 100 0.0 WNW 28 33 15 18 1017.6 1017.8 17.6
28/07:30am 5.6 -1.1 5.6 100 0.0 WNW 30 35 16 19 1017.2 1017.4 17.6
28/07:00am 5.5 -0.5 5.5 100 0.0 WNW 26 30 14 16 1017.0 1017.2 17.4
28/06:30am 5.3 -0.3 5.3 100 0.0 WNW 24 28 13 15 1017.0 1017.2 17.4
28/06:00am 5.5 0.3 5.5 100 0.0 WNW 22 28 12 15 1016.8 1017.0 17.4
28/05:30am 5.7 1.1 5.7 100 0.0 WNW 19 26 10 14 1017.0 1017.2 17.2
28/05:00am 5.6 0.0 5.6 100 0.0 WNW 24 32 13 17 1016.7 1016.9 17.2
28/04:30am 5.7 0.2 5.7 100 0.0 WNW 24 30 13 16 1016.7 1016.9 17.0
28/04:00am 5.7 0.5 5.7 100 0.0 WNW 22 32 12 17 1016.8 1017.0 16.8
28/03:30am 5.8 0.3 5.8 100 0.0 WNW 24 32 13 17 1016.6 1016.7 16.6
28/03:00am 6.2 0.8 6.2 100 0.0 WNW 24 35 13 19 1016.7 1016.9 16.2
28/02:30am 6.0 0.9 6.0 100 0.0 W 22 32 12 17 1016.9 1017.1 15.8
28/02:00am 6.2 0.8 6.2 100 0.0 WNW 24 35 13 19 1017.1 1017.3 15.6
28/01:30am 6.2 0.8 6.2 100 0.0 WNW 24 37 13 20 1016.8 1017.0 15.0
28/01:00am 6.2 2.5 6.2 100 0.0 NW 15 24 8 13 1016.8 1017.0 14.4
28/12:30am 6.2 0.8 6.2 100 0.0 WNW 24 35 13 19 1016.9 1017.1 13.4
28/12:00am 6.1 -1.1 6.1 100 0.0 WNW 33 46 18 25 1016.9 1017.1 13.2
 
Date/Time
EST
Temp
°C
App
Temp
°C
Dew
Point
°C
Rel
Hum
%
Delta-T
°C
Wind Press
QNH
hPa
Press
MSL
hPa
Rain since
9am
mm
Dir  Spd
km/h
Gust
km/h
Spd
kts
Gust
kts
27/11:30pm 6.3 1.3 6.3 100 0.0 WNW 22 32 12 17 1017.3 1017.5 12.6
27/11:00pm 6.3 -0.2 6.3 100 0.0 WNW 30 46 16 25 1017.1 1017.3 11.4
27/10:30pm 6.2 1.1 6.2 100 0.0 WNW 22 30 12 16 1017.3 1017.5 10.2
27/10:00pm 6.2 0.8 6.2 100 0.0 WNW 24 33 13 18 1017.3 1017.5 9.6
27/09:30pm 6.0 -0.6 6.0 100 0.0 WNW 30 39 16 21 1017.1 1017.3 8.6
27/09:00pm 5.7 0.5 5.7 100 0.0 WNW 22 33 12 18 1017.0 1017.2 7.2
27/08:30pm 5.6 -0.3 5.6 100 0.0 W 26 32 14 17 1017.0 1017.2 6.6
27/08:00pm 5.4 -1.3 5.4 100 0.0 WNW 30 39 16 21 1017.1 1017.3 6.4
27/07:30pm 5.2 -0.1 5.2 100 0.0 WNW 22 32 12 17 1017.2 1017.4 5.6
27/07:00pm 4.9 -0.8 4.9 100 0.0 W 24 32 13 17 1017.2 1017.4 5.2
27/06:30pm 4.6 -1.9 4.6 100 0.0 WNW 28 39 15 21 1017.0 1017.2 5.0
27/06:00pm 4.3 -1.9 4.3 100 0.0 WNW 26 32 14 17 1016.9 1017.1 4.2
27/05:30pm 4.3 -2.3 4.3 100 0.0 WNW 28 43 15 23 1016.8 1017.0 3.2
27/05:00pm 4.1 -3.3 4.1 100 0.0 W 32 43 17 23 1017.1 1017.3 2.6
27/04:30pm 4.1 -3.8 4.1 100 0.0 W 35 46 19 25 1016.8 1017.0 2.4
27/04:00pm 3.9 -2.8 3.9 100 0.0 W 28 41 15 22 1016.7 1016.9 1.8
27/03:30pm 3.5 -2.5 3.5 100 0.0 W 24 35 13 19 1016.6 1016.7 1.4
27/03:00pm 3.4 -2.6 3.4 100 0.0 W 24 33 13 18 1016.8 1017.0 0.6
27/02:30pm 3.0 -3.1 3.0 100 0.0 W 24 32 13 17 1016.7 1016.9 0.0
27/02:00pm 2.7 -2.1 2.7 100 0.0 W 17 30 9 16 1016.6 1016.7 0.0
27/01:30pm 2.5 -3.6 2.5 100 0.0 W 24 32 13 17 1016.8 1017.0 0.0
27/01:00pm 2.0 -3.9 2.0 100 0.0 WSW 22 32 12 17 1017.4 1017.7 0.0
27/12:30pm 2.0 -3.9 2.0 100 0.0 WSW 22 30 12 16 1017.8 1018.0 0.0
27/12:00pm 1.7 -4.2 1.7 100 0.0 WSW 22 30 12 16 1017.8 1018.0 0.0
27/11:30am 1.0 -5.8 1.0 100 0.0 SW 26 33 14 18 1018.2 1018.5 0.0
27/11:00am 0.9 -6.3 0.9 100 0.0 SW 28 35 15 19 1018.0 1018.2 0.0
27/10:30am 1.0 -4.6 1.0 100 0.0 SW 20 32 11 17 1018.2 1018.5 0.0
27/10:00am 0.4 -4.0 0.4 100 0.0 SW 13 19 7 10 1017.9 1018.1 0.0
27/09:30am 0.1 -4.3 0.1 100 0.0 SW 13 20 7 11 1017.8 1018.0 0.0
27/09:00am 0.0 -4.5 0.0 100 0.0 SW 13 19 7 10 1017.7 1017.9 6.2
27/08:30am -0.1 -4.9 -0.1 100 0.0 S 15 19 8 10 1017.4 1017.7 4.8
27/08:00am -0.2 -5.1 -0.2 100 0.0 S 15 19 8 10 1017.1 1017.3 4.8
27/07:30am -0.4 -5.7 -0.4 100 0.0 S 17 20 9 11 1016.9 1017.1 4.8
27/07:00am -0.6 -5.5 -0.6 100 0.0 S 15 17 8 9 1016.7 1016.9 4.8
27/06:30am -0.6 -5.9 -0.6 100 0.0 S 17 20 9 11 1016.8 1017.0 4.8
27/06:00am -0.7 -6.0 -0.7 100 0.0 S 17 20 9 11 1016.4 1016.6 4.8
27/05:30am -0.8 -6.1 -0.8 100 0.0 S 17 24 9 13 1016.2 1016.4 4.8
27/05:00am -1.0 -6.4 -1.0 100 0.0 S 17 19 9 10 1016.1 1016.3 4.8
27/04:30am -1.2 -6.6 -1.3 99 0.0 S 17 20 9 11 1015.8 1015.9 4.8
27/04:00am -1.2 -6.6 -1.3 99 0.0 S 17 22 9 12 1015.6 1015.7 4.8
27/03:30am -1.2 -6.6 -1.3 99 0.0 S 17 20 9 11 1015.3 1015.5 4.8
27/03:00am -1.3 -6.3 -1.4 99 0.0 S 15 19 8 10 1015.7 1015.8 4.8
27/02:30am -1.4 -6.4 -1.5 99 0.0 S 15 17 8 9 1015.8 1015.9 4.8
27/02:00am -1.3 -6.7 -1.4 99 0.0 S 17 19 9 10 1016.0 1016.2 4.8
27/01:30am -1.5 -6.9 -1.6 99 0.0 S 17 20 9 11 1015.8 1015.9 4.8
27/01:00am -1.4 -7.2 -1.5 99 0.0 S 19 22 10 12 1015.6 1015.7 4.8
27/12:30am -1.3 -7.1 -1.4 99 0.0 S 19 20 10 11 1015.7 1015.8 4.8
27/12:00am -1.0 -6.7 -1.0 100 0.0 S 19 20 10 11 1015.6 1015.7 4.8
 
Date/Time
EST
Temp
°C
App
Temp
°C
Dew
Point
°C
Rel
Hum
%
Delta-T
°C
Wind Press
QNH
hPa
Press
MSL
hPa
Rain since
9am
mm
Dir  Spd
km/h
Gust
km/h
Spd
kts
Gust
kts
26/11:30pm -0.9 -5.9 -0.9 100 0.0 S 15 19 8 10 1015.7 1015.8 4.8
26/11:00pm -1.0 -5.6 -1.0 100 0.0 S 13 17 7 9 1015.8 1015.9 4.8
26/10:30pm -1.1 -6.1 -1.2 99 0.0 S 15 17 8 9 1015.6 1015.7 4.8
26/10:00pm -1.2 -6.2 -1.3 99 0.0 S 15 17 8 9 1015.1 1015.3 4.8
26/09:30pm -1.0 -6.9 -1.0 100 0.0 S 20 22 11 12 1014.9 1015.0 4.8
26/09:00pm -1.0 -6.7 -1.0 100 0.0 S 19 22 10 12 1014.7 1014.8 4.8
26/08:30pm -0.9 -6.2 -0.9 100 0.0 S 17 20 9 11 1014.4 1014.6 4.8
26/08:00pm -0.9 -6.8 -0.9 100 0.0 S 20 26 11 14 1014.0 1014.1 4.8
26/07:30pm -0.8 -6.5 -0.8 100 0.0 S 19 22 10 12 1013.5 1013.6 4.8
26/07:00pm -0.8 -7.8 -0.8 100 0.0 S 26 30 14 16 1012.8 1012.8 4.8
26/06:30pm -0.7 -8.1 -0.7 100 0.0 S 28 32 15 17 1012.2 1012.3 4.8
26/06:00pm -0.5 -7.9 -0.5 100 0.0 S 28 33 15 18 1011.6 1011.7 4.8
26/05:30pm -0.5 -8.3 -0.5 100 0.0 S 30 35 16 19 1010.9 1010.9 4.8
26/05:00pm -0.2 -8.3 -0.2 100 0.0 SSW 32 44 17 24 1010.2 1010.2 4.8
26/04:30pm -0.1 -8.2 -0.1 100 0.0 SSW 32 37 17 20 1009.9 1009.9 4.8
26/04:00pm -0.2 -8.5 -0.2 100 0.0 SSW 33 41 18 22 1009.4 1009.4 4.8
26/03:30pm -0.1 -8.4 -0.1 100 0.0 S 33 44 18 24 1009.0 1009.0 4.8
26/03:00pm -0.1 -9.9 -0.1 100 0.0 SSW 41 50 22 27 1008.3 1008.3 4.8
26/02:30pm -0.2 -10.4 -0.2 100 0.0 SSW 43 52 23 28 1007.6 1007.6 4.6
26/02:00pm -0.3 -9.0 -0.3 100 0.0 SSW 35 46 19 25 1007.6 1007.6 4.2
26/01:30pm -0.2 -9.2 -0.2 100 0.0 SSW 37 46 20 25 1007.3 1007.2 4.2
26/01:00pm -0.5 -7.9 -0.5 100 0.0 SSW 28 33 15 18 1007.2 1007.1 3.6
26/12:30pm 0.0 -7.7 0.0 100 0.0 SSW 30 37 16 20 1007.2 1007.1 3.4
26/12:00pm 0.0 -7.7 0.0 100 0.0 SSW 30 35 16 19 1007.0 1006.9 3.4
26/11:30am -1.3 -9.7 -1.4 99 0.0 SSW 33 39 18 21 1007.0 1006.9 2.6
26/11:00am -0.2 -8.5 -0.2 100 0.0 SSW 33 39 18 21 1006.5 1006.4 2.2
26/10:30am -0.4 -8.5 -0.4 100 0.0 SSW 32 37 17 20 1006.2 1006.1 1.0
26/10:00am -1.1 -9.5 -1.2 99 0.0 SSW 33 41 18 22 1006.1 1006.0 0.0
26/09:30am -1.0 -9.4 -1.1 99 0.0 SSW 33 39 18 21 1005.9 1005.8 0.0
26/09:00am -1.2 -10.8 -1.3 99 0.0 SSW 39 44 21 24 1005.2 1005.1 17.8
26/08:30am -0.7 -9.4 -0.7 100 0.0 SSW 35 43 19 23 1004.7 1004.6 17.8
26/08:00am -0.7 -10.6 -0.7 100 0.0 SSW 41 52 22 28 1004.1 1003.9 17.8
26/07:30am -0.5 -10.7 -0.5 100 0.0 SSW 43 50 23 27 1003.4 1003.2 17.8
26/07:00am -0.9 -13.3 -0.9 100 0.0 SSW 54 63 29 34 1002.5 1002.3 17.8
26/06:30am -0.3 -11.1 -0.3 100 0.0 SSW 46 56 25 30 1001.9 1001.8 17.8
26/06:00am -0.2 -13.0 -0.2 100 0.0 SSW 57 70 31 38 1001.3 1001.1 17.8
26/05:34am 0.0 -12.6 0.0 100 0.0 SSW 56 74 30 40 1001.2 1000.9 17.8
26/05:30am -0.1 -13.7 -0.1 100 0.0 SSW 61 76 33 41 1000.9 1000.7 17.8
26/05:00am 0.1 -13.8 0.1 100 0.0 S 63 76 34 41 1000.3 1000.0 17.8
26/04:30am 0.2 -14.5 0.2 100 0.0 S 67 85 36 46 999.5 999.2 17.6
26/04:11am 0.5 -14.1 0.5 100 0.0 S 67 85 36 46 999.5 999.2 17.4
26/04:00am 0.3 -14.4 0.3 100 0.0 SSW 67 78 36 42 999.6 999.3 17.2
26/03:41am 1.1 -11.4 1.1 100 0.0 SSW 56 76 30 41 999.6 999.3 16.4
26/03:30am 1.0 -12.0 1.0 100 0.0 SSW 59 72 32 39 999.5 999.2 16.4
26/03:00am 1.7 -9.5 1.7 100 0.0 SSW 50 63 27 34 999.5 999.2 15.0
26/02:30am 2.0 -8.4 2.0 100 0.0 S 46 56 25 30 999.4 999.1 13.6
26/02:00am 1.8 -9.0 1.8 100 0.0 SSW 48 59 26 32 999.0 998.8 12.8
26/01:30am 1.9 -8.0 1.9 100 0.0 SSW 43 52 23 28 999.3 999.0 12.6
26/01:00am 1.8 -8.1 1.8 100 0.0 SSW 43 52 23 28 999.4 999.1 12.2
26/12:54am 1.8 -9.0 1.8 100 0.0 SSW 48 63 26 34 999.2 998.9 12.2
26/12:30am 2.2 -11.0 2.2 100 0.0 SSW 61 72 33 39 998.7 998.4 11.8
26/12:02am 3.0 -7.6 3.0 100 0.0 SSW 48 69 26 37 998.7 998.4 11.2
26/12:00am 3.1 -7.1 3.1 100 0.0 SSW 46 63 25 34 998.9 998.7 11.0
 
Date/Time
EST
Temp
°C
App
Temp
°C
Dew
Point
°C
Rel
Hum
%
Delta-T
°C
Wind Press
QNH
hPa
Press
MSL
hPa
Rain since
9am
mm
Dir  Spd
km/h
Gust
km/h
Spd
kts
Gust
kts
25/11:35pm 3.9 -4.1 3.9 100 0.0 SSW 35 56 19 30 998.9 998.7 8.4
25/11:30pm 4.1 -2.5 4.1 100 0.0 SSW 28 44 15 24 999.0 998.8 8.0
25/11:00pm 4.3 -1.1 4.3 100 0.0 WNW 22 32 12 17 999.2 998.9 6.2
25/10:30pm 4.3 0.6 4.3 100 0.0 NNW 13 28 7 15 999.5 999.2 4.0
25/10:00pm 4.3 -1.9 4.3 100 0.0 NW 26 54 14 29 999.7 999.5 3.0
25/09:30pm 4.4 -0.4 4.4 100 0.0 NNW 19 24 10 13 999.6 999.3 0.6
25/09:00pm 4.5 -0.9 4.5 100 0.0 NNW 22 37 12 20 999.8 999.6 0.6
25/08:30pm 4.4 -1.0 4.4 100 0.0 N 22 33 12 18 1000.3 1000.0 0.6
25/08:00pm 4.7 -0.7 4.7 100 0.0 N 22 37 12 20 1000.4 1000.1 0.6
25/07:30pm 4.7 0.3 4.7 100 0.0 NNW 17 37 9 20 1000.8 1000.6 0.6
25/07:00pm 4.6 0.9 4.6 100 0.0 NNW 13 32 7 17 1001.1 1000.8 0.4
25/06:30pm 4.5 -0.5 4.5 100 0.0 NW 20 41 11 22 1001.1 1000.8 0.4
25/06:00pm 4.5 -0.3 4.5 100 0.0 NW 19 37 10 20 1001.2 1000.9 0.4
25/05:30pm 4.6 -1.2 4.6 100 0.0 NW 24 43 13 23 1001.1 1000.8 0.4
25/05:00pm 4.8 -0.9 4.8 100 0.0 WNW 24 33 13 18 1001.3 1001.1 0.4
25/04:30pm 5.0 -1.4 5.0 100 0.0 WNW 28 48 15 26 1001.4 1001.2 0.4
25/04:00pm 5.3 0.6 5.3 100 0.0 NW 19 32 10 17 1001.7 1001.5 0.4
25/03:30pm 5.2 -0.4 5.2 100 0.0 WNW 24 32 13 17 1001.8 1001.6 0.4
25/03:00pm 5.4 0.6 5.4 100 0.0 WNW 20 33 11 18 1002.1 1001.9 0.2
25/02:30pm 5.9 1.1 5.8 99 0.0 WNW 20 30 11 16 1002.2 1002.0 0.0
25/02:00pm 6.4 2.3 6.1 98 0.1 W 17 26 9 14 1002.7 1002.6 0.0
25/01:30pm 5.5 -0.1 5.4 99 0.0 WSW 24 30 13 16 1003.1 1002.9 0.0
25/01:00pm 5.8 1.0 5.8 100 0.0 W 20 28 11 15 1003.6 1003.5 0.0
25/12:30pm 6.4 2.0 6.4 100 0.0 W 19 26 10 14 1004.0 1003.8 0.0
25/12:00pm 5.8 2.4 5.8 100 0.0 W 13 22 7 12 1004.6 1004.5 0.0
25/11:30am 5.6 1.8 5.6 100 0.0 W 15 20 8 11 1005.2 1005.1 0.0
25/11:00am 5.5 2.0 5.5 100 0.0 W 13 20 7 11 1005.4 1005.3 0.0
25/10:30am 5.2 0.9 5.2 100 0.0 WSW 17 24 9 13 1005.6 1005.5 0.0
25/10:00am 5.6 2.1 5.6 100 0.0 WSW 13 20 7 11 1006.0 1005.9 0.0
25/09:30am 5.2 0.5 5.2 100 0.0 WSW 19 26 10 14 1006.3 1006.2 0.0
25/09:00am 4.8 -0.5 4.8 100 0.0 WSW 22 28 12 15 1006.4 1006.3 2.4

Other Formats:

Comma delimited format used in spreadsheet applications
http://www.bom.gov.au/fwo/IDT60801/IDT60801.95952.axf

JavaScript Object Notation format (JSON) in row-major order
http://www.bom.gov.au/fwo/IDT60801/IDT60801.95952.json